x

Stannard Rock, Mi (stdm4) Weather Station

10:00pm - Sun 21st Dec 2014 All times are CST. -6 hours from GMT.

  • Wind
    31mph, 33mph gusts
  • Air Temp 36°f
  • Sea Pressure 1013.7mb
  • Stannard Rock, Mi
  • Stannard Rock, Mi

More Historic Weather Station data

Upgrade to MSW Pro to gain access to the past 30 days of data for over 8000 Wavebouys and Weather Stations around the globe.

Join Pro

Comparision Forecast

View Surf forecast
   
Sun 12/21 10:00pm 31 33 mph 1013.7mb 36f
9:00pm 30 32 mph 1013.9mb 35f
8:00pm 31 33 mph 1014.3mb 35f
7:00pm 32 34 mph 1014.6mb 35f
6:00pm 29 32 mph 1014.8mb 36f
5:00pm 31 34 mph 1014.9mb 36f
4:00pm 30 33 mph 1015.2mb 36f
3:00pm 28 31 mph 1015.6mb 35f
2:00pm 28 30 mph 1016.2mb 35f
1:00pm 29 31 mph 1016.7mb 34f
12:00pm 29 31 mph 1017.5mb 34f
11:00am 29 32 mph 1018.6mb 34f
10:00am 29 33 mph 1019.4mb 33f
9:00am 29 32 mph 1019.5mb 33f
8:00am 29 30 mph 1019.5mb 33f
7:00am 25 26 mph 1020mb 33f
6:00am 17 18 mph 1020.6mb 33f
5:00am 20 21 mph 1020.7mb 33f
4:00am 17 21 mph 1021.4mb 33f
3:00am 16 17 mph 1021.9mb 33f
2:00am 16 17 mph 1022.1mb 32f
1:00am 11 13 mph 1021.9mb 33f
12:00am 10 11 mph 1022.2mb 32f
Sat 12/20 11:00pm 14 17 mph 1022.5mb 33f
10:00pm 14 15 mph 1022.4mb 33f
9:00pm 16 17 mph 1022.8mb 33f
8:00pm 14 15 mph 1022.9mb 32f
7:00pm 14 15 mph 1023.2mb 32f
6:00pm 7 9 mph 1023.4mb 33f
5:00pm 8 9 mph 1023.5mb 32f
4:00pm 7 8 mph 1023.5mb 31f
3:00pm 9 11 mph 1023.3mb 30f
2:00pm 6 7 mph 1023.1mb 30f
1:00pm 7 8 mph 1023.5mb 29f
12:00pm 7 8 mph 1023.9mb 29f
11:00am 3 5 mph 1024.5mb 29f
10:00am 9 11 mph 1024.9mb 29f
9:00am 8 9 mph 1024.7mb 30f
8:00am 8 10 mph 1024.9mb 30f
7:00am 10 13 mph 1024.7mb 29f
6:00am 11 13 mph 1024.8mb 29f
5:00am 13 15 mph 1024.8mb 29f
4:00am 13 14 mph 1024.8mb 29f
3:00am 11 13 mph 1024.8mb 29f
2:00am 11 14 mph 1024.8mb 29f
1:00am 15 17 mph 1024.5mb 29f
12:00am 7 9 mph 1024.9mb 31f
Fri 12/19 11:00pm 10 13 mph 1025.2mb 31f
10:00pm 9 11 mph 1025.5mb 30f
9:00pm 8 9 mph 1025.9mb 30f
8:00pm 8 10 mph 1026.1mb 30f
7:00pm 7 9 mph 1026mb 30f
6:00pm 8 9 mph 1025.9mb 30f
5:00pm 3 5 mph 1026.2mb 30f
4:00pm 5 6 mph 1026.1mb 30f
3:00pm 5 7 mph 1025.8mb 30f
2:00pm 2 3 mph 1025.4mb 30f
1:00pm 3
mph
1025.7mb 30f
12:00pm  -  2 mph 1026.3mb 30f
11:00am 2 5 mph 1026.6mb 30f
10:00am  -  mph 1027.2mb 30f
9:00am 5 9 mph 1027.1mb 30f
8:00am 6 7 mph 1027mb 30f
7:00am 6
mph
1026.8mb 30f
6:00am 7 8 mph 1026.4mb 30f
5:00am 6 7 mph 1026.2mb 29f
4:00am 5
mph
1026.1mb 29f
3:00am 9 11 mph 1026.1mb 29f
2:00am 9 10 mph 1026.1mb 29f
1:00am 6 7 mph 1026mb 29f
12:00am 7 9 mph 1026.3mb 29f
Thu 12/18 11:00pm 8 10 mph 1026.5mb 29f
10:00pm 8 13 mph 1026.2mb 29f
9:00pm 10 11 mph 1026.2mb 29f
8:00pm 13 14 mph 1026.2mb 28f
7:00pm 11 13 mph 1026.3mb 28f
6:00pm 8 10 mph 1026.4mb 27f
5:00pm 13 15 mph 1026.4mb 27f
4:00pm 9 13 mph 1026.7mb 27f
3:00pm 9 10 mph 1026.4mb 27f
2:00pm 10 13 mph 1026.1mb 28f
1:00pm 5 8 mph 1026.4mb 28f
12:00pm 5 6 mph 1027.1mb 28f
11:00am 9 10 mph 1027.5mb 26f
10:00am 10 11 mph 1028mb 27f
9:00am 14 15 mph 1027.6mb 26f
8:00am 15 16 mph 1027.8mb 26f
7:00am 16 18 mph 1027.8mb 25f
6:00am 16 21 mph 1027.7mb 25f